sensor_id;sensor_type;location;lat;lon;timestamp;P1;durP1;ratioP1;P2;durP2;ratioP2
26860;SDS011;37676;46.956;7.430;2022-07-12T00:01:15;0.57;;;0.20;;
26860;SDS011;37676;46.956;7.430;2022-07-12T00:03:40;1.67;;;0.20;;
26860;SDS011;37676;46.956;7.430;2022-07-12T00:06:05;0.93;;;0.20;;
26860;SDS011;37676;46.956;7.430;2022-07-12T00:08:31;0.80;;;0.20;;
26860;SDS011;37676;46.956;7.430;2022-07-12T00:10:56;1.15;;;0.22;;
26860;SDS011;37676;46.956;7.430;2022-07-12T00:13:23;0.73;;;0.20;;
26860;SDS011;37676;46.956;7.430;2022-07-12T00:15:48;0.60;;;0.20;;
26860;SDS011;37676;46.956;7.430;2022-07-12T00:18:14;0.68;;;0.20;;
26860;SDS011;37676;46.956;7.430;2022-07-12T00:20:39;0.25;;;0.20;;
26860;SDS011;37676;46.956;7.430;2022-07-12T00:23:04;0.10;;;0.10;;
26860;SDS011;37676;46.956;7.430;2022-07-12T00:25:30;0.23;;;0.20;;
26860;SDS011;37676;46.956;7.430;2022-07-12T00:27:55;0.50;;;0.20;;
26860;SDS011;37676;46.956;7.430;2022-07-12T00:30:21;0.30;;;0.20;;
26860;SDS011;37676;46.956;7.430;2022-07-12T00:32:47;0.13;;;0.10;;
26860;SDS011;37676;46.956;7.430;2022-07-12T00:35:13;0.10;;;0.10;;
26860;SDS011;37676;46.956;7.430;2022-07-12T00:37:39;0.40;;;0.20;;
26860;SDS011;37676;46.956;7.430;2022-07-12T00:40:06;0.57;;;0.20;;
26860;SDS011;37676;46.956;7.430;2022-07-12T00:42:33;0.35;;;0.20;;
26860;SDS011;37676;46.956;7.430;2022-07-12T00:45:00;0.20;;;0.20;;
26860;SDS011;37676;46.956;7.430;2022-07-12T00:47:28;0.20;;;0.10;;
26860;SDS011;37676;46.956;7.430;2022-07-12T00:50:02;0.40;;;0.20;;
26860;SDS011;37676;46.956;7.430;2022-07-12T00:52:28;0.45;;;0.20;;
26860;SDS011;37676;46.956;7.430;2022-07-12T00:54:54;0.95;;;0.30;;
26860;SDS011;37676;46.956;7.430;2022-07-12T00:57:19;0.82;;;0.20;;
26860;SDS011;37676;46.956;7.430;2022-07-12T00:59:45;0.47;;;0.20;;
26860;SDS011;37676;46.956;7.430;2022-07-12T01:02:10;0.50;;;0.20;;
26860;SDS011;37676;46.956;7.430;2022-07-12T01:04:35;0.20;;;0.20;;
26860;SDS011;37676;46.956;7.430;2022-07-12T01:07:01;0.50;;;0.30;;
26860;SDS011;37676;46.956;7.430;2022-07-12T01:09:26;0.88;;;0.30;;
26860;SDS011;37676;46.956;7.430;2022-07-12T01:11:53;0.50;;;0.20;;
26860;SDS011;37676;46.956;7.430;2022-07-12T01:14:18;0.60;;;0.30;;
26860;SDS011;37676;46.956;7.430;2022-07-12T01:16:44;0.30;;;0.10;;
26860;SDS011;37676;46.956;7.430;2022-07-12T01:19:09;0.10;;;0.10;;
26860;SDS011;37676;46.956;7.430;2022-07-12T01:21:42;0.20;;;0.10;;
26860;SDS011;37676;46.956;7.430;2022-07-12T01:24:11;0.55;;;0.10;;
26860;SDS011;37676;46.956;7.430;2022-07-12T01:26:38;1.05;;;0.10;;
26860;SDS011;37676;46.956;7.430;2022-07-12T01:29:04;0.22;;;0.20;;
26860;SDS011;37676;46.956;7.430;2022-07-12T01:31:31;0.10;;;0.10;;
26860;SDS011;37676;46.956;7.430;2022-07-12T01:33:58;0.30;;;0.20;;
26860;SDS011;37676;46.956;7.430;2022-07-12T01:36:24;0.28;;;0.17;;
26860;SDS011;37676;46.956;7.430;2022-07-12T01:38:49;0.20;;;0.20;;
26860;SDS011;37676;46.956;7.430;2022-07-12T01:41:14;1.08;;;0.30;;
26860;SDS011;37676;46.956;7.430;2022-07-12T01:43:41;0.20;;;0.20;;
26860;SDS011;37676;46.956;7.430;2022-07-12T01:46:07;0.82;;;0.20;;
26860;SDS011;37676;46.956;7.430;2022-07-12T01:48:32;0.50;;;0.30;;
26860;SDS011;37676;46.956;7.430;2022-07-12T01:50:57;0.35;;;0.20;;
26860;SDS011;37676;46.956;7.430;2022-07-12T01:53:23;1.15;;;0.30;;
26860;SDS011;37676;46.956;7.430;2022-07-12T01:55:48;0.43;;;0.20;;
26860;SDS011;37676;46.956;7.430;2022-07-12T01:58:14;0.95;;;0.30;;
26860;SDS011;37676;46.956;7.430;2022-07-12T02:00:40;0.20;;;0.20;;
26860;SDS011;37676;46.956;7.430;2022-07-12T02:03:06;0.45;;;0.20;;
26860;SDS011;37676;46.956;7.430;2022-07-12T02:05:31;0.15;;;0.15;;
26860;SDS011;37676;46.956;7.430;2022-07-12T02:07:56;0.20;;;0.20;;
26860;SDS011;37676;46.956;7.430;2022-07-12T02:10:22;0.38;;;0.20;;
26860;SDS011;37676;46.956;7.430;2022-07-12T02:12:47;0.50;;;0.30;;
26860;SDS011;37676;46.956;7.430;2022-07-12T02:15:13;0.60;;;0.20;;
26860;SDS011;37676;46.956;7.430;2022-07-12T02:17:38;0.28;;;0.17;;
26860;SDS011;37676;46.956;7.430;2022-07-12T02:20:03;0.50;;;0.20;;
26860;SDS011;37676;46.956;7.430;2022-07-12T02:22:30;0.40;;;0.20;;
26860;SDS011;37676;46.956;7.430;2022-07-12T02:24:55;0.47;;;0.20;;
26860;SDS011;37676;46.956;7.430;2022-07-12T02:27:20;0.77;;;0.30;;
26860;SDS011;37676;46.956;7.430;2022-07-12T02:29:46;0.38;;;0.10;;
26860;SDS011;37676;46.956;7.430;2022-07-12T02:32:11;0.30;;;0.20;;
26860;SDS011;37676;46.956;7.430;2022-07-12T02:34:37;0.30;;;0.20;;
26860;SDS011;37676;46.956;7.430;2022-07-12T02:37:02;0.25;;;0.20;;
26860;SDS011;37676;46.956;7.430;2022-07-12T02:39:28;1.63;;;0.30;;
26860;SDS011;37676;46.956;7.430;2022-07-12T02:41:53;0.40;;;0.20;;
26860;SDS011;37676;46.956;7.430;2022-07-12T02:44:18;0.30;;;0.20;;
26860;SDS011;37676;46.956;7.430;2022-07-12T02:46:45;0.10;;;0.10;;
26860;SDS011;37676;46.956;7.430;2022-07-12T02:49:10;0.20;;;0.20;;
26860;SDS011;37676;46.956;7.430;2022-07-12T02:51:35;0.40;;;0.20;;
26860;SDS011;37676;46.956;7.430;2022-07-12T02:54:00;0.27;;;0.20;;
26860;SDS011;37676;46.956;7.430;2022-07-12T02:56:26;0.43;;;0.20;;
26860;SDS011;37676;46.956;7.430;2022-07-12T02:58:52;0.10;;;0.10;;
26860;SDS011;37676;46.956;7.430;2022-07-12T03:01:17;0.73;;;0.30;;
26860;SDS011;37676;46.956;7.430;2022-07-12T03:03:42;0.60;;;0.30;;
26860;SDS011;37676;46.956;7.430;2022-07-12T03:06:08;0.70;;;0.30;;
26860;SDS011;37676;46.956;7.430;2022-07-12T03:08:33;0.75;;;0.20;;
26860;SDS011;37676;46.956;7.430;2022-07-12T03:10:58;0.30;;;0.20;;
26860;SDS011;37676;46.956;7.430;2022-07-12T03:13:24;0.60;;;0.20;;
26860;SDS011;37676;46.956;7.430;2022-07-12T03:15:50;0.32;;;0.20;;
26860;SDS011;37676;46.956;7.430;2022-07-12T03:18:15;0.45;;;0.20;;
26860;SDS011;37676;46.956;7.430;2022-07-12T03:20:42;0.20;;;0.20;;
26860;SDS011;37676;46.956;7.430;2022-07-12T03:23:07;0.22;;;0.20;;
26860;SDS011;37676;46.956;7.430;2022-07-12T03:25:32;0.90;;;0.30;;
26860;SDS011;37676;46.956;7.430;2022-07-12T03:27:58;0.65;;;0.28;;
26860;SDS011;37676;46.956;7.430;2022-07-12T03:30:24;0.40;;;0.20;;
26860;SDS011;37676;46.956;7.430;2022-07-12T03:32:50;0.20;;;0.20;;
26860;SDS011;37676;46.956;7.430;2022-07-12T03:35:15;0.40;;;0.20;;
26860;SDS011;37676;46.956;7.430;2022-07-12T03:37:47;0.50;;;0.30;;
26860;SDS011;37676;46.956;7.430;2022-07-12T03:42:42;0.68;;;0.28;;
26860;SDS011;37676;46.956;7.430;2022-07-12T03:45:08;0.43;;;0.22;;
26860;SDS011;37676;46.956;7.430;2022-07-12T03:47:34;0.40;;;0.28;;
26860;SDS011;37676;46.956;7.430;2022-07-12T03:50:03;0.25;;;0.20;;
26860;SDS011;37676;46.956;7.430;2022-07-12T03:52:30;0.40;;;0.20;;
26860;SDS011;37676;46.956;7.430;2022-07-12T03:54:55;0.52;;;0.30;;
26860;SDS011;37676;46.956;7.430;2022-07-12T03:57:21;0.40;;;0.27;;
26860;SDS011;37676;46.956;7.430;2022-07-12T03:59:46;0.45;;;0.20;;
26860;SDS011;37676;46.956;7.430;2022-07-12T04:02:12;0.93;;;0.25;;
26860;SDS011;37676;46.956;7.430;2022-07-12T04:04:37;0.50;;;0.20;;
26860;SDS011;37676;46.956;7.430;2022-07-12T04:07:04;0.50;;;0.30;;
26860;SDS011;37676;46.956;7.430;2022-07-12T04:09:29;1.48;;;0.30;;
26860;SDS011;37676;46.956;7.430;2022-07-12T04:11:55;0.65;;;0.30;;
26860;SDS011;37676;46.956;7.430;2022-07-12T04:14:20;0.50;;;0.30;;
26860;SDS011;37676;46.956;7.430;2022-07-12T04:16:46;0.20;;;0.20;;
26860;SDS011;37676;46.956;7.430;2022-07-12T04:19:11;0.45;;;0.20;;
26860;SDS011;37676;46.956;7.430;2022-07-12T04:21:37;0.30;;;0.20;;
26860;SDS011;37676;46.956;7.430;2022-07-12T04:24:03;0.17;;;0.15;;
26860;SDS011;37676;46.956;7.430;2022-07-12T04:26:29;0.60;;;0.30;;
26860;SDS011;37676;46.956;7.430;2022-07-12T04:28:54;0.30;;;0.20;;
26860;SDS011;37676;46.956;7.430;2022-07-12T04:31:19;0.65;;;0.20;;
26860;SDS011;37676;46.956;7.430;2022-07-12T04:33:45;0.60;;;0.20;;
26860;SDS011;37676;46.956;7.430;2022-07-12T04:36:10;1.00;;;0.35;;
26860;SDS011;37676;46.956;7.430;2022-07-12T04:38:35;0.77;;;0.30;;
26860;SDS011;37676;46.956;7.430;2022-07-12T04:41:01;0.60;;;0.30;;
26860;SDS011;37676;46.956;7.430;2022-07-12T04:43:26;0.40;;;0.22;;
26860;SDS011;37676;46.956;7.430;2022-07-12T04:45:51;0.30;;;0.17;;
26860;SDS011;37676;46.956;7.430;2022-07-12T04:48:17;0.40;;;0.20;;
26860;SDS011;37676;46.956;7.430;2022-07-12T04:50:42;0.20;;;0.20;;
26860;SDS011;37676;46.956;7.430;2022-07-12T04:53:08;0.52;;;0.20;;
26860;SDS011;37676;46.956;7.430;2022-07-12T04:55:34;0.88;;;0.30;;
26860;SDS011;37676;46.956;7.430;2022-07-12T04:57:59;0.52;;;0.30;;
26860;SDS011;37676;46.956;7.430;2022-07-12T05:00:25;0.43;;;0.20;;
26860;SDS011;37676;46.956;7.430;2022-07-12T05:02:50;0.57;;;0.20;;
26860;SDS011;37676;46.956;7.430;2022-07-12T05:05:15;0.55;;;0.20;;
26860;SDS011;37676;46.956;7.430;2022-07-12T05:07:41;0.93;;;0.40;;
26860;SDS011;37676;46.956;7.430;2022-07-12T05:10:06;0.50;;;0.20;;
26860;SDS011;37676;46.956;7.430;2022-07-12T05:12:35;0.50;;;0.20;;
26860;SDS011;37676;46.956;7.430;2022-07-12T05:15:01;0.40;;;0.20;;
26860;SDS011;37676;46.956;7.430;2022-07-12T05:17:28;0.93;;;0.40;;
26860;SDS011;37676;46.956;7.430;2022-07-12T05:19:54;0.68;;;0.30;;
26860;SDS011;37676;46.956;7.430;2022-07-12T05:22:20;0.80;;;0.38;;
26860;SDS011;37676;46.956;7.430;2022-07-12T05:24:45;0.77;;;0.30;;
26860;SDS011;37676;46.956;7.430;2022-07-12T05:27:11;0.70;;;0.40;;
26860;SDS011;37676;46.956;7.430;2022-07-12T05:29:36;0.82;;;0.40;;
26860;SDS011;37676;46.956;7.430;2022-07-12T05:32:01;0.35;;;0.25;;
26860;SDS011;37676;46.956;7.430;2022-07-12T05:34:27;0.60;;;0.30;;
26860;SDS011;37676;46.956;7.430;2022-07-12T05:36:53;0.30;;;0.20;;
26860;SDS011;37676;46.956;7.430;2022-07-12T05:39:19;0.30;;;0.20;;
26860;SDS011;37676;46.956;7.430;2022-07-12T05:41:44;0.60;;;0.40;;
26860;SDS011;37676;46.956;7.430;2022-07-12T05:44:11;0.80;;;0.30;;
26860;SDS011;37676;46.956;7.430;2022-07-12T05:46:36;0.68;;;0.30;;
26860;SDS011;37676;46.956;7.430;2022-07-12T05:49:02;1.52;;;0.30;;
26860;SDS011;37676;46.956;7.430;2022-07-12T05:51:28;0.57;;;0.30;;
26860;SDS011;37676;46.956;7.430;2022-07-12T05:54:11;0.53;;;0.30;;
26860;SDS011;37676;46.956;7.430;2022-07-12T05:56:37;1.48;;;0.50;;
26860;SDS011;37676;46.956;7.430;2022-07-12T05:59:02;1.17;;;0.30;;
26860;SDS011;37676;46.956;7.430;2022-07-12T06:01:27;0.85;;;0.30;;
26860;SDS011;37676;46.956;7.430;2022-07-12T06:03:53;0.77;;;0.30;;
26860;SDS011;37676;46.956;7.430;2022-07-12T06:06:18;1.10;;;0.40;;
26860;SDS011;37676;46.956;7.430;2022-07-12T06:08:43;0.40;;;0.30;;
26860;SDS011;37676;46.956;7.430;2022-07-12T06:11:09;1.90;;;0.30;;
26860;SDS011;37676;46.956;7.430;2022-07-12T06:13:34;2.03;;;0.40;;
26860;SDS011;37676;46.956;7.430;2022-07-12T06:15:59;1.55;;;0.40;;
26860;SDS011;37676;46.956;7.430;2022-07-12T06:18:25;0.70;;;0.40;;
26860;SDS011;37676;46.956;7.430;2022-07-12T06:20:50;0.40;;;0.30;;
26860;SDS011;37676;46.956;7.430;2022-07-12T06:23:16;0.93;;;0.30;;
26860;SDS011;37676;46.956;7.430;2022-07-12T06:25:41;0.40;;;0.30;;
26860;SDS011;37676;46.956;7.430;2022-07-12T06:28:07;0.45;;;0.20;;
26860;SDS011;37676;46.956;7.430;2022-07-12T06:30:32;1.05;;;0.40;;
26860;SDS011;37676;46.956;7.430;2022-07-12T06:32:57;0.68;;;0.35;;
26860;SDS011;37676;46.956;7.430;2022-07-12T06:35:23;0.77;;;0.40;;
26860;SDS011;37676;46.956;7.430;2022-07-12T06:37:48;0.77;;;0.40;;
26860;SDS011;37676;46.956;7.430;2022-07-12T06:40:13;1.25;;;0.50;;
26860;SDS011;37676;46.956;7.430;2022-07-12T06:42:42;0.50;;;0.30;;
26860;SDS011;37676;46.956;7.430;2022-07-12T06:45:08;0.95;;;0.40;;
26860;SDS011;37676;46.956;7.430;2022-07-12T06:47:34;0.52;;;0.30;;
26860;SDS011;37676;46.956;7.430;2022-07-12T06:49:59;0.77;;;0.40;;
26860;SDS011;37676;46.956;7.430;2022-07-12T06:52:24;1.00;;;0.47;;
26860;SDS011;37676;46.956;7.430;2022-07-12T06:54:50;0.57;;;0.30;;
26860;SDS011;37676;46.956;7.430;2022-07-12T06:57:15;0.50;;;0.30;;
26860;SDS011;37676;46.956;7.430;2022-07-12T06:59:40;0.90;;;0.20;;
26860;SDS011;37676;46.956;7.430;2022-07-12T07:02:06;0.55;;;0.30;;
26860;SDS011;37676;46.956;7.430;2022-07-12T07:04:31;0.50;;;0.30;;
26860;SDS011;37676;46.956;7.430;2022-07-12T07:06:57;0.30;;;0.20;;
26860;SDS011;37676;46.956;7.430;2022-07-12T07:09:23;0.98;;;0.40;;
26860;SDS011;37676;46.956;7.430;2022-07-12T07:11:48;0.50;;;0.20;;
26860;SDS011;37676;46.956;7.430;2022-07-12T07:14:13;0.50;;;0.28;;
26860;SDS011;37676;46.956;7.430;2022-07-12T07:16:38;0.55;;;0.28;;
26860;SDS011;37676;46.956;7.430;2022-07-12T07:19:04;0.40;;;0.30;;
26860;SDS011;37676;46.956;7.430;2022-07-12T07:21:30;0.40;;;0.28;;
26860;SDS011;37676;46.956;7.430;2022-07-12T07:23:56;1.00;;;0.43;;
26860;SDS011;37676;46.956;7.430;2022-07-12T07:26:21;0.70;;;0.30;;
26860;SDS011;37676;46.956;7.430;2022-07-12T07:28:47;1.20;;;0.40;;
26860;SDS011;37676;46.956;7.430;2022-07-12T07:31:36;0.73;;;0.20;;
26860;SDS011;37676;46.956;7.430;2022-07-12T07:34:02;0.63;;;0.20;;
26860;SDS011;37676;46.956;7.430;2022-07-12T07:36:28;1.38;;;0.30;;
26860;SDS011;37676;46.956;7.430;2022-07-12T07:38:53;0.63;;;0.30;;
26860;SDS011;37676;46.956;7.430;2022-07-12T07:41:19;0.73;;;0.35;;
26860;SDS011;37676;46.956;7.430;2022-07-12T07:43:45;0.77;;;0.25;;
26860;SDS011;37676;46.956;7.430;2022-07-12T07:46:10;0.50;;;0.30;;
26860;SDS011;37676;46.956;7.430;2022-07-12T07:48:35;0.38;;;0.20;;
26860;SDS011;37676;46.956;7.430;2022-07-12T07:51:01;0.77;;;0.40;;
26860;SDS011;37676;46.956;7.430;2022-07-12T07:53:26;0.52;;;0.30;;
26860;SDS011;37676;46.956;7.430;2022-07-12T07:55:52;0.32;;;0.25;;
26860;SDS011;37676;46.956;7.430;2022-07-12T07:58:17;0.75;;;0.30;;
26860;SDS011;37676;46.956;7.430;2022-07-12T08:00:43;0.25;;;0.20;;
26860;SDS011;37676;46.956;7.430;2022-07-12T08:03:08;0.80;;;0.38;;
26860;SDS011;37676;46.956;7.430;2022-07-12T08:05:33;0.73;;;0.30;;
26860;SDS011;37676;46.956;7.430;2022-07-12T08:07:59;0.57;;;0.20;;
26860;SDS011;37676;46.956;7.430;2022-07-12T08:10:24;2.30;;;0.30;;
26860;SDS011;37676;46.956;7.430;2022-07-12T08:12:50;0.20;;;0.20;;
26860;SDS011;37676;46.956;7.430;2022-07-12T08:15:16;0.50;;;0.30;;
26860;SDS011;37676;46.956;7.430;2022-07-12T08:17:41;1.10;;;0.50;;
26860;SDS011;37676;46.956;7.430;2022-07-12T08:20:06;2.65;;;1.40;;
26860;SDS011;37676;46.956;7.430;2022-07-12T08:22:32;2.75;;;1.42;;
26860;SDS011;37676;46.956;7.430;2022-07-12T08:24:58;6.05;;;3.45;;
26860;SDS011;37676;46.956;7.430;2022-07-12T08:27:23;12.85;;;7.30;;
26860;SDS011;37676;46.956;7.430;2022-07-12T08:29:49;6.97;;;3.58;;
26860;SDS011;37676;46.956;7.430;2022-07-12T08:32:14;2.58;;;1.45;;
26860;SDS011;37676;46.956;7.430;2022-07-12T08:34:40;2.40;;;1.00;;
26860;SDS011;37676;46.956;7.430;2022-07-12T08:37:06;2.13;;;0.73;;
26860;SDS011;37676;46.956;7.430;2022-07-12T08:39:31;1.83;;;0.73;;
26860;SDS011;37676;46.956;7.430;2022-07-12T08:41:56;1.10;;;0.57;;
26860;SDS011;37676;46.956;7.430;2022-07-12T08:44:21;1.03;;;0.43;;
26860;SDS011;37676;46.956;7.430;2022-07-12T08:46:47;1.65;;;0.60;;
26860;SDS011;37676;46.956;7.430;2022-07-12T08:49:12;1.25;;;0.50;;
26860;SDS011;37676;46.956;7.430;2022-07-12T08:51:38;1.98;;;0.70;;
26860;SDS011;37676;46.956;7.430;2022-07-12T08:54:13;1.38;;;0.52;;
26860;SDS011;37676;46.956;7.430;2022-07-12T08:56:39;1.00;;;0.43;;
26860;SDS011;37676;46.956;7.430;2022-07-12T08:59:09;1.35;;;0.50;;
26860;SDS011;37676;46.956;7.430;2022-07-12T09:01:43;0.68;;;0.35;;
26860;SDS011;37676;46.956;7.430;2022-07-12T09:04:13;0.70;;;0.30;;
26860;SDS011;37676;46.956;7.430;2022-07-12T09:06:39;2.17;;;1.20;;
26860;SDS011;37676;46.956;7.430;2022-07-12T09:09:04;3.45;;;1.20;;
26860;SDS011;37676;46.956;7.430;2022-07-12T09:11:30;2.88;;;0.98;;
26860;SDS011;37676;46.956;7.430;2022-07-12T09:13:55;1.58;;;0.60;;
26860;SDS011;37676;46.956;7.430;2022-07-12T09:16:25;1.45;;;0.50;;
26860;SDS011;37676;46.956;7.430;2022-07-12T09:18:51;1.35;;;0.52;;
26860;SDS011;37676;46.956;7.430;2022-07-12T09:21:35;1.05;;;0.45;;
26860;SDS011;37676;46.956;7.430;2022-07-12T09:24:01;0.60;;;0.38;;
26860;SDS011;37676;46.956;7.430;2022-07-12T09:26:30;0.77;;;0.40;;
26860;SDS011;37676;46.956;7.430;2022-07-12T09:29:05;0.73;;;0.40;;
26860;SDS011;37676;46.956;7.430;2022-07-12T09:31:38;0.90;;;0.40;;
26860;SDS011;37676;46.956;7.430;2022-07-12T09:34:30;1.10;;;0.60;;
26860;SDS011;37676;46.956;7.430;2022-07-12T09:37:14;1.00;;;0.40;;
26860;SDS011;37676;46.956;7.430;2022-07-12T09:39:41;0.77;;;0.40;;
26860;SDS011;37676;46.956;7.430;2022-07-12T09:42:07;1.92;;;0.70;;
26860;SDS011;37676;46.956;7.430;2022-07-12T09:44:36;1.00;;;0.47;;
26860;SDS011;37676;46.956;7.430;2022-07-12T09:47:07;0.77;;;0.40;;
26860;SDS011;37676;46.956;7.430;2022-07-12T09:49:38;0.82;;;0.40;;
26860;SDS011;37676;46.956;7.430;2022-07-12T09:52:04;1.38;;;0.57;;
26860;SDS011;37676;46.956;7.430;2022-07-12T09:54:30;1.95;;;0.55;;
26860;SDS011;37676;46.956;7.430;2022-07-12T09:56:59;0.98;;;0.52;;
26860;SDS011;37676;46.956;7.430;2022-07-12T09:59:28;0.95;;;0.40;;
26860;SDS011;37676;46.956;7.430;2022-07-12T10:01:54;1.38;;;0.60;;
26860;SDS011;37676;46.956;7.430;2022-07-12T10:04:24;3.03;;;0.60;;
26860;SDS011;37676;46.956;7.430;2022-07-12T10:06:54;1.02;;;0.65;;
26860;SDS011;37676;46.956;7.430;2022-07-12T10:09:19;3.33;;;1.20;;
26860;SDS011;37676;46.956;7.430;2022-07-12T10:11:45;1.50;;;0.70;;
26860;SDS011;37676;46.956;7.430;2022-07-12T10:14:11;7.32;;;6.20;;
26860;SDS011;37676;46.956;7.430;2022-07-12T10:16:38;4.20;;;2.80;;
26860;SDS011;37676;46.956;7.430;2022-07-12T10:19:23;2.03;;;1.00;;
26860;SDS011;37676;46.956;7.430;2022-07-12T10:21:49;1.50;;;0.70;;
26860;SDS011;37676;46.956;7.430;2022-07-12T10:24:44;0.90;;;0.50;;
26860;SDS011;37676;46.956;7.430;2022-07-12T10:29:38;1.10;;;0.60;;
26860;SDS011;37676;46.956;7.430;2022-07-12T10:32:10;1.50;;;0.40;;
26860;SDS011;37676;46.956;7.430;2022-07-12T10:35:12;1.48;;;0.50;;
26860;SDS011;37676;46.956;7.430;2022-07-12T10:37:37;1.45;;;0.50;;
26860;SDS011;37676;46.956;7.430;2022-07-12T10:40:15;0.68;;;0.40;;
26860;SDS011;37676;46.956;7.430;2022-07-12T10:43:12;0.40;;;0.20;;
26860;SDS011;37676;46.956;7.430;2022-07-12T10:45:48;1.23;;;0.40;;
26860;SDS011;37676;46.956;7.430;2022-07-12T11:01:11;1.85;;;0.40;;
26860;SDS011;37676;46.956;7.430;2022-07-12T11:03:45;0.60;;;0.30;;
26860;SDS011;37676;46.956;7.430;2022-07-12T11:06:19;0.32;;;0.20;;
26860;SDS011;37676;46.956;7.430;2022-07-12T11:08:56;0.75;;;0.40;;
26860;SDS011;37676;46.956;7.430;2022-07-12T11:11:23;0.57;;;0.30;;
26860;SDS011;37676;46.956;7.430;2022-07-12T11:13:50;0.52;;;0.30;;
26860;SDS011;37676;46.956;7.430;2022-07-12T11:16:16;0.35;;;0.30;;
26860;SDS011;37676;46.956;7.430;2022-07-12T11:18:42;0.85;;;0.30;;
26860;SDS011;37676;46.956;7.430;2022-07-12T11:21:08;0.40;;;0.30;;
26860;SDS011;37676;46.956;7.430;2022-07-12T11:23:34;0.60;;;0.30;;
26860;SDS011;37676;46.956;7.430;2022-07-12T11:26:00;1.13;;;0.30;;
26860;SDS011;37676;46.956;7.430;2022-07-12T11:28:27;0.73;;;0.40;;
26860;SDS011;37676;46.956;7.430;2022-07-12T11:30:54;0.98;;;0.40;;
26860;SDS011;37676;46.956;7.430;2022-07-12T11:33:36;0.60;;;0.35;;
26860;SDS011;37676;46.956;7.430;2022-07-12T11:36:04;0.60;;;0.30;;
26860;SDS011;37676;46.956;7.430;2022-07-12T11:38:31;2.03;;;0.35;;
26860;SDS011;37676;46.956;7.430;2022-07-12T11:40:59;1.40;;;0.38;;
26860;SDS011;37676;46.956;7.430;2022-07-12T11:43:27;0.68;;;0.20;;
26860;SDS011;37676;46.956;7.430;2022-07-12T11:45:53;0.80;;;0.35;;
26860;SDS011;37676;46.956;7.430;2022-07-12T11:48:19;0.60;;;0.30;;
26860;SDS011;37676;46.956;7.430;2022-07-12T11:50:46;0.32;;;0.30;;
26860;SDS011;37676;46.956;7.430;2022-07-12T11:53:19;0.68;;;0.40;;
26860;SDS011;37676;46.956;7.430;2022-07-12T11:58:13;1.30;;;0.60;;
26860;SDS011;37676;46.956;7.430;2022-07-12T12:00:39;2.03;;;0.57;;
26860;SDS011;37676;46.956;7.430;2022-07-12T12:03:04;0.98;;;0.40;;
26860;SDS011;37676;46.956;7.430;2022-07-12T12:05:30;0.47;;;0.30;;
26860;SDS011;37676;46.956;7.430;2022-07-12T12:07:56;5.65;;;2.42;;
26860;SDS011;37676;46.956;7.430;2022-07-12T12:10:22;8.98;;;4.07;;
26860;SDS011;37676;46.956;7.430;2022-07-12T12:15:17;3.53;;;0.70;;
26860;SDS011;37676;46.956;7.430;2022-07-12T12:17:44;2.00;;;0.75;;
26860;SDS011;37676;46.956;7.430;2022-07-12T12:20:16;1.70;;;0.70;;
26860;SDS011;37676;46.956;7.430;2022-07-12T12:22:44;1.13;;;0.40;;
26860;SDS011;37676;46.956;7.430;2022-07-12T12:25:10;0.65;;;0.30;;
26860;SDS011;37676;46.956;7.430;2022-07-12T12:27:42;0.82;;;0.30;;
26860;SDS011;37676;46.956;7.430;2022-07-12T12:30:08;0.65;;;0.20;;
26860;SDS011;37676;46.956;7.430;2022-07-12T12:32:47;0.40;;;0.30;;
26860;SDS011;37676;46.956;7.430;2022-07-12T12:35:16;0.50;;;0.30;;
26860;SDS011;37676;46.956;7.430;2022-07-12T12:37:49;1.05;;;0.30;;
26860;SDS011;37676;46.956;7.430;2022-07-12T12:40:19;0.55;;;0.25;;
26860;SDS011;37676;46.956;7.430;2022-07-12T12:42:48;0.70;;;0.30;;
26860;SDS011;37676;46.956;7.430;2022-07-12T12:45:20;0.50;;;0.25;;
26860;SDS011;37676;46.956;7.430;2022-07-12T12:47:54;0.40;;;0.20;;
26860;SDS011;37676;46.956;7.430;2022-07-12T12:50:40;0.95;;;0.38;;
26860;SDS011;37676;46.956;7.430;2022-07-12T12:53:10;0.80;;;0.30;;
26860;SDS011;37676;46.956;7.430;2022-07-12T12:55:47;0.32;;;0.20;;
26860;SDS011;37676;46.956;7.430;2022-07-12T12:58:17;0.30;;;0.20;;
26860;SDS011;37676;46.956;7.430;2022-07-12T13:00:44;0.30;;;0.20;;
26860;SDS011;37676;46.956;7.430;2022-07-12T13:03:11;0.65;;;0.30;;
26860;SDS011;37676;46.956;7.430;2022-07-12T13:05:38;0.38;;;0.20;;
26860;SDS011;37676;46.956;7.430;2022-07-12T13:08:04;0.30;;;0.20;;
26860;SDS011;37676;46.956;7.430;2022-07-12T13:10:32;0.40;;;0.20;;
26860;SDS011;37676;46.956;7.430;2022-07-12T13:12:58;0.20;;;0.10;;
26860;SDS011;37676;46.956;7.430;2022-07-12T13:15:24;0.63;;;0.32;;
26860;SDS011;37676;46.956;7.430;2022-07-12T13:17:50;0.47;;;0.22;;
26860;SDS011;37676;46.956;7.430;2022-07-12T13:20:15;1.40;;;0.50;;
26860;SDS011;37676;46.956;7.430;2022-07-12T13:22:41;0.65;;;0.30;;
26860;SDS011;37676;46.956;7.430;2022-07-12T13:25:07;0.60;;;0.30;;
26860;SDS011;37676;46.956;7.430;2022-07-12T13:27:34;0.45;;;0.20;;
26860;SDS011;37676;46.956;7.430;2022-07-12T13:29:59;0.30;;;0.17;;
26860;SDS011;37676;46.956;7.430;2022-07-12T13:32:25;0.30;;;0.20;;
26860;SDS011;37676;46.956;7.430;2022-07-12T13:34:50;0.77;;;0.38;;
26860;SDS011;37676;46.956;7.430;2022-07-12T13:37:16;0.75;;;0.20;;
26860;SDS011;37676;46.956;7.430;2022-07-12T13:39:41;0.47;;;0.25;;
26860;SDS011;37676;46.956;7.430;2022-07-12T13:44:51;1.03;;;0.30;;
26860;SDS011;37676;46.956;7.430;2022-07-12T13:47:18;1.70;;;0.30;;
26860;SDS011;37676;46.956;7.430;2022-07-12T13:49:44;0.50;;;0.30;;
26860;SDS011;37676;46.956;7.430;2022-07-12T13:52:09;1.40;;;0.40;;
26860;SDS011;37676;46.956;7.430;2022-07-12T13:54:35;1.95;;;0.63;;
26860;SDS011;37676;46.956;7.430;2022-07-12T13:57:00;1.83;;;0.68;;
26860;SDS011;37676;46.956;7.430;2022-07-12T13:59:25;0.85;;;0.40;;
26860;SDS011;37676;46.956;7.430;2022-07-12T14:01:51;0.60;;;0.33;;
26860;SDS011;37676;46.956;7.430;2022-07-12T14:04:16;0.50;;;0.30;;
26860;SDS011;37676;46.956;7.430;2022-07-12T14:06:41;0.40;;;0.20;;
26860;SDS011;37676;46.956;7.430;2022-07-12T14:09:07;0.55;;;0.30;;
26860;SDS011;37676;46.956;7.430;2022-07-12T14:11:32;0.30;;;0.20;;
26860;SDS011;37676;46.956;7.430;2022-07-12T14:13:57;0.13;;;0.10;;
26860;SDS011;37676;46.956;7.430;2022-07-12T14:16:23;0.80;;;0.22;;
26860;SDS011;37676;46.956;7.430;2022-07-12T14:18:48;0.45;;;0.20;;
26860;SDS011;37676;46.956;7.430;2022-07-12T14:21:14;3.17;;;1.43;;
26860;SDS011;37676;46.956;7.430;2022-07-12T14:23:39;4.25;;;2.22;;
26860;SDS011;37676;46.956;7.430;2022-07-12T14:26:05;1.20;;;0.50;;
26860;SDS011;37676;46.956;7.430;2022-07-12T14:28:30;1.02;;;0.40;;
26860;SDS011;37676;46.956;7.430;2022-07-12T14:30:56;0.47;;;0.20;;
26860;SDS011;37676;46.956;7.430;2022-07-12T14:33:22;0.50;;;0.25;;
26860;SDS011;37676;46.956;7.430;2022-07-12T14:35:47;0.60;;;0.15;;
26860;SDS011;37676;46.956;7.430;2022-07-12T14:38:12;0.35;;;0.20;;
26860;SDS011;37676;46.956;7.430;2022-07-12T14:40:38;0.60;;;0.20;;
26860;SDS011;37676;46.956;7.430;2022-07-12T14:43:04;0.52;;;0.20;;
26860;SDS011;37676;46.956;7.430;2022-07-12T14:45:29;0.20;;;0.20;;
26860;SDS011;37676;46.956;7.430;2022-07-12T14:47:54;0.32;;;0.20;;
26860;SDS011;37676;46.956;7.430;2022-07-12T14:50:20;0.10;;;0.10;;
26860;SDS011;37676;46.956;7.430;2022-07-12T14:52:45;0.65;;;0.20;;
26860;SDS011;37676;46.956;7.430;2022-07-12T14:55:10;0.40;;;0.30;;
26860;SDS011;37676;46.956;7.430;2022-07-12T14:57:37;0.70;;;0.30;;
26860;SDS011;37676;46.956;7.430;2022-07-12T15:00:04;0.73;;;0.30;;
26860;SDS011;37676;46.956;7.430;2022-07-12T15:02:31;0.30;;;0.20;;
26860;SDS011;37676;46.956;7.430;2022-07-12T15:04:56;0.40;;;0.20;;
26860;SDS011;37676;46.956;7.430;2022-07-12T15:07:22;0.50;;;0.20;;
26860;SDS011;37676;46.956;7.430;2022-07-12T15:09:47;1.40;;;0.40;;
26860;SDS011;37676;46.956;7.430;2022-07-12T15:12:13;0.95;;;0.30;;